Time;durP1;ratioP1;P1;durP2;ratioP2;P2;SDS_P1;SDS_P2;PMS_P1;PMS_P2;Temp;Humidity;BMP_temperature;BMP_pressure;BME280_temperature;BME280_humidity;BME280_pressure;Samples;Min_cycle;Max_cycle;Signal;HPM_P1;HPM_P2
2023/08/28 00:00:31;;;;;;;;;;;26.60;59.60;;;;;;5093604;28;20283;-60
2023/08/28 00:02:58;;;;;;;;;;;26.60;60.10;;;;;;5093541;28;19924;-60
2023/08/28 00:05:28;;;;;;;;;;;26.60;59.60;;;;;;5093427;28;20361;-59
2023/08/28 00:07:55;;;;;;;;;;;26.60;59.60;;;;;;5092621;28;19924;-59
2023/08/28 00:10:22;;;;;;;;;;;26.60;59.60;;;;;;5085810;28;19985;-59
2023/08/28 00:12:49;;;;;;;;;;;26.60;59.60;;;;;;5093147;28;19924;-59
2023/08/28 00:15:16;;;;;;;;;;;26.60;59.60;;;;;;5093280;28;20445;-59
2023/08/28 00:17:43;;;;;;;;;;;26.60;60.10;;;;;;5092884;28;19979;-60
2023/08/28 00:20:11;;;;;;;;;;;26.60;59.60;;;;;;5093196;28;20376;-59
2023/08/28 00:22:38;;;;;;;;;;;26.60;59.60;;;;;;5095367;28;19932;-59
2023/08/28 00:25:07;;;;;;;;;;;26.60;59.60;;;;;;5096801;28;19924;-59
2023/08/28 00:27:34;;;;;;;;;;;26.60;59.60;;;;;;5080554;28;19925;-59
2023/08/28 00:30:03;;;;;;;;;;;26.60;59.60;;;;;;5097291;28;19971;-60
2023/08/28 00:32:30;;;;;;;;;;;26.60;59.60;;;;;;5097328;28;19951;-59
2023/08/28 00:34:57;;;;;;;;;;;26.60;59.50;;;;;;5097136;28;20296;-59
2023/08/28 00:37:24;;;;;;;;;;;26.60;59.50;;;;;;5097179;28;19924;-59
2023/08/28 00:39:51;;;;;;;;;;;26.60;59.50;;;;;;5097217;28;20307;-59
2023/08/28 00:42:18;;;;;;;;;;;26.60;59.50;;;;;;5097106;28;20265;-59
2023/08/28 00:44:45;;;;;;;;;;;26.60;59.50;;;;;;5095960;28;20400;-59
2023/08/28 00:47:13;;;;;;;;;;;26.60;59.50;;;;;;5096256;28;20384;-60
2023/08/28 00:49:40;;;;;;;;;;;26.60;59.50;;;;;;5096733;28;20415;-59
2023/08/28 00:52:08;;;;;;;;;;;26.60;59.50;;;;;;5096694;28;19928;-59
2023/08/28 00:54:35;;;;;;;;;;;26.60;59.50;;;;;;5096970;28;19924;-60
2023/08/28 00:57:02;;;;;;;;;;;26.60;59.50;;;;;;5096551;28;19924;-59
2023/08/28 00:59:30;;;;;;;;;;;26.60;59.50;;;;;;5096571;28;19969;-59
2023/08/28 01:01:57;;;;;;;;;;;26.60;59.50;;;;;;5096401;28;19935;-59
2023/08/28 01:04:24;;;;;;;;;;;26.60;59.50;;;;;;5094915;28;19931;-59
2023/08/28 01:06:54;;;;;;;;;;;26.60;59.50;;;;;;5096275;28;20372;-59
2023/08/28 01:09:29;;;;;;;;;;;26.60;59.50;;;;;;5096208;28;20322;-59
2023/08/28 01:12:14;;;;;;;;;;;26.60;59.50;;;;;;5096301;28;19985;-59
2023/08/28 01:14:49;;;;;;;;;;;26.60;59.60;;;;;;5096283;28;19924;-59
2023/08/28 01:17:18;;;;;;;;;;;26.60;59.60;;;;;;5095992;28;19947;-59
2023/08/28 01:19:45;;;;;;;;;;;26.60;59.60;;;;;;5096418;28;19924;-59
2023/08/28 01:22:32;;;;;;;;;;;26.60;59.60;;;;;;5095471;28;19931;-59
2023/08/28 01:25:04;;;;;;;;;;;26.60;59.60;;;;;;5094523;28;20348;-59
2023/08/28 01:27:32;;;;;;;;;;;26.50;59.50;;;;;;5095733;28;20278;-59
2023/08/28 01:30:10;;;;;;;;;;;26.50;59.60;;;;;;5096026;28;19970;-59
2023/08/28 01:32:37;;;;;;;;;;;26.50;59.60;;;;;;5095461;28;19934;-59
2023/08/28 01:35:07;;;;;;;;;;;26.60;59.60;;;;;;5094515;28;20002;-59
2023/08/28 01:37:54;;;;;;;;;;;26.50;59.60;;;;;;5095965;28;19928;-59
2023/08/28 01:40:23;;;;;;;;;;;26.50;59.60;;;;;;5095875;28;19928;-59
2023/08/28 01:42:50;;;;;;;;;;;26.50;59.60;;;;;;5093911;28;19924;-59
2023/08/28 01:45:17;;;;;;;;;;;26.50;59.60;;;;;;5096065;28;19990;-59
2023/08/28 01:47:45;;;;;;;;;;;26.50;59.60;;;;;;5095741;28;19928;-59
2023/08/28 01:50:12;;;;;;;;;;;26.50;59.60;;;;;;5095568;28;19924;-59
2023/08/28 01:52:39;;;;;;;;;;;26.50;59.70;;;;;;5094065;28;19928;-59
2023/08/28 01:55:06;;;;;;;;;;;26.50;59.70;;;;;;5093852;28;20023;-59
2023/08/28 01:57:33;;;;;;;;;;;26.50;59.70;;;;;;5095593;28;19959;-59
2023/08/28 02:00:00;;;;;;;;;;;26.50;59.70;;;;;;5095133;28;19977;-59
2023/08/28 02:02:27;;;;;;;;;;;26.50;59.70;;;;;;5095330;28;19986;-60
2023/08/28 02:04:54;;;;;;;;;;;26.50;59.70;;;;;;5094785;28;19924;-59
2023/08/28 02:07:21;;;;;;;;;;;26.50;59.70;;;;;;5095284;28;19969;-60
2023/08/28 02:09:48;;;;;;;;;;;26.50;59.70;;;;;;5094634;28;19959;-59
2023/08/28 02:12:15;;;;;;;;;;;26.50;59.70;;;;;;5094684;28;19928;-59
2023/08/28 02:14:42;;;;;;;;;;;26.50;59.80;;;;;;5095163;28;19932;-59
2023/08/28 02:17:09;;;;;;;;;;;26.50;59.80;;;;;;5095328;28;19928;-59
2023/08/28 02:19:36;;;;;;;;;;;26.50;59.80;;;;;;5095169;28;19969;-59
2023/08/28 02:22:03;;;;;;;;;;;26.50;59.80;;;;;;5095011;28;19977;-59
2023/08/28 02:24:30;;;;;;;;;;;26.50;59.80;;;;;;5095155;28;19924;-59
2023/08/28 02:26:58;;;;;;;;;;;26.50;59.80;;;;;;5094326;28;19928;-59
2023/08/28 02:29:25;;;;;;;;;;;26.50;59.80;;;;;;5095123;28;19924;-59
2023/08/28 02:31:52;;;;;;;;;;;26.50;59.90;;;;;;5077427;28;19928;-59
2023/08/28 02:34:19;;;;;;;;;;;26.50;59.80;;;;;;5073662;28;19924;-59
2023/08/28 02:36:46;;;;;;;;;;;26.50;59.80;;;;;;5074450;28;19924;-59
2023/08/28 02:39:13;;;;;;;;;;;26.50;59.80;;;;;;5087369;28;19924;-59
2023/08/28 02:41:40;;;;;;;;;;;26.50;59.80;;;;;;5094515;28;19978;-59
2023/08/28 02:44:07;;;;;;;;;;;26.50;59.80;;;;;;5094033;28;19928;-59
2023/08/28 02:46:34;;;;;;;;;;;26.50;59.80;;;;;;5094099;28;20406;-59
2023/08/28 02:49:01;;;;;;;;;;;26.50;59.80;;;;;;5094348;28;19946;-59
2023/08/28 02:51:28;;;;;;;;;;;26.50;59.70;;;;;;5093367;28;19967;-60
2023/08/28 02:53:55;;;;;;;;;;;26.50;59.70;;;;;;5094163;28;19924;-59
2023/08/28 02:56:26;;;;;;;;;;;26.50;59.70;;;;;;5093595;28;19927;-59
2023/08/28 02:58:53;;;;;;;;;;;26.50;59.70;;;;;;5094444;28;19930;-59
2023/08/28 03:01:21;;;;;;;;;;;26.50;59.70;;;;;;5094567;28;19924;-59
2023/08/28 03:03:48;;;;;;;;;;;26.50;59.70;;;;;;5094563;28;20334;-59
2023/08/28 03:06:15;;;;;;;;;;;26.50;59.70;;;;;;5093881;28;20023;-59
2023/08/28 03:08:42;;;;;;;;;;;26.50;59.70;;;;;;5094066;28;19924;-59
2023/08/28 03:11:09;;;;;;;;;;;26.50;59.70;;;;;;5094138;28;20023;-59
2023/08/28 03:13:36;;;;;;;;;;;26.50;59.70;;;;;;5094090;28;20268;-59
2023/08/28 03:16:03;;;;;;;;;;;26.50;59.70;;;;;;5093321;28;20285;-60
2023/08/28 03:18:30;;;;;;;;;;;26.50;59.70;;;;;;5093734;28;19924;-60
2023/08/28 03:20:57;;;;;;;;;;;26.50;59.70;;;;;;5094175;28;19932;-59
2023/08/28 03:23:24;;;;;;;;;;;26.50;59.70;;;;;;5093215;28;19969;-60
2023/08/28 03:25:51;;;;;;;;;;;26.50;59.70;;;;;;5094046;28;19924;-59
2023/08/28 03:28:18;;;;;;;;;;;26.50;59.70;;;;;;5093795;28;19924;-59
2023/08/28 03:30:45;;;;;;;;;;;26.50;59.80;;;;;;5092888;28;20438;-60
2023/08/28 03:33:12;;;;;;;;;;;26.50;59.80;;;;;;5089546;28;20291;-59
2023/08/28 03:35:39;;;;;;;;;;;26.50;59.80;;;;;;5089561;28;19924;-59
2023/08/28 03:38:06;;;;;;;;;;;26.50;59.80;;;;;;5073421;28;19931;-59
2023/08/28 03:40:35;;;;;;;;;;;26.50;59.80;;;;;;5073817;28;19925;-59
2023/08/28 03:43:03;;;;;;;;;;;26.50;59.80;;;;;;5073260;28;19924;-59
2023/08/28 03:45:31;;;;;;;;;;;26.50;59.90;;;;;;5073564;28;19985;-59
2023/08/28 03:47:58;;;;;;;;;;;26.50;60.40;;;;;;5085330;28;20430;-59
2023/08/28 03:50:28;;;;;;;;;;;26.50;59.90;;;;;;5073054;28;20055;-59
2023/08/28 03:52:59;;;;;;;;;;;26.50;59.90;;;;;;5073401;28;19928;-59
2023/08/28 03:55:29;;;;;;;;;;;26.50;59.90;;;;;;5084217;28;20358;-59
2023/08/28 03:57:57;;;;;;;;;;;26.50;59.90;;;;;;5093918;28;19931;-60
2023/08/28 04:00:25;;;;;;;;;;;26.40;59.80;;;;;;5089061;28;20411;-60
2023/08/28 04:02:52;;;;;;;;;;;26.50;59.90;;;;;;5090642;28;20037;-59
2023/08/28 04:05:20;;;;;;;;;;;26.50;59.90;;;;;;5097754;28;19924;-59
2023/08/28 04:07:48;;;;;;;;;;;26.40;59.80;;;;;;5097739;28;19928;-59
2023/08/28 04:10:15;;;;;;;;;;;26.50;59.90;;;;;;5097570;28;19928;-59
2023/08/28 04:12:42;;;;;;;;;;;26.40;59.80;;;;;;5084427;28;19931;-61
2023/08/28 04:15:09;;;;;;;;;;;26.40;59.80;;;;;;5088563;28;20011;-59
2023/08/28 04:17:36;;;;;;;;;;;26.50;59.90;;;;;;5087068;28;19927;-61
2023/08/28 04:20:09;;;;;;;;;;;26.50;59.80;;;;;;5082825;28;19993;-59
2023/08/28 04:22:37;;;;;;;;;;;26.50;59.90;;;;;;5097231;28;19953;-59
2023/08/28 04:25:05;;;;;;;;;;;26.50;59.80;;;;;;5089369;28;19931;-59
2023/08/28 04:27:32;;;;;;;;;;;26.50;59.80;;;;;;5076962;28;19928;-59
2023/08/28 04:29:59;;;;;;;;;;;26.50;60.00;;;;;;5077129;28;19955;-59
2023/08/28 04:32:26;;;;;;;;;;;26.50;59.80;;;;;;5076273;28;19924;-59
2023/08/28 04:34:54;;;;;;;;;;;26.50;59.70;;;;;;5075779;28;19931;-59
2023/08/28 04:37:22;;;;;;;;;;;26.50;59.70;;;;;;5076599;28;20269;-59
2023/08/28 04:39:49;;;;;;;;;;;26.40;59.70;;;;;;5087065;28;19964;-59
2023/08/28 04:42:16;;;;;;;;;;;26.30;59.80;;;;;;5085827;28;19924;-60
2023/08/28 04:44:43;;;;;;;;;;;26.20;59.90;;;;;;5079184;28;20000;-62
2023/08/28 04:47:10;;;;;;;;;;;26.00;58.60;;;;;;5087883;28;20384;-63
2023/08/28 04:49:37;;;;;;;;;;;25.70;56.60;;;;;;5085773;28;19924;-60
2023/08/28 04:52:05;;;;;;;;;;;25.50;55.30;;;;;;5091358;28;19928;-60
2023/08/28 04:54:32;;;;;;;;;;;25.20;53.90;;;;;;5087903;28;19924;-62
2023/08/28 04:56:59;;;;;;;;;;;24.90;53.00;;;;;;5079209;28;20372;-59
2023/08/28 04:59:26;;;;;;;;;;;24.70;52.20;;;;;;5075901;28;19955;-60
2023/08/28 05:01:53;;;;;;;;;;;24.40;52.20;;;;;;5095141;28;20300;-59
2023/08/28 05:04:20;;;;;;;;;;;24.10;51.50;;;;;;5080313;28;19978;-60
2023/08/28 05:06:47;;;;;;;;;;;23.90;51.80;;;;;;5078937;28;19924;-63
2023/08/28 05:09:14;;;;;;;;;;;23.60;52.20;;;;;;5081757;28;19936;-70
2023/08/28 05:11:41;;;;;;;;;;;23.40;51.80;;;;;;5088966;28;19928;-63
2023/08/28 05:14:08;;;;;;;;;;;23.10;56.50;;;;;;5074084;28;19970;-63
2023/08/28 05:16:35;;;;;;;;;;;22.80;58.70;;;;;;5080880;28;19998;-61
2023/08/28 05:19:02;;;;;;;;;;;22.30;63.70;;;;;;5079843;28;19970;-64
2023/08/28 05:21:29;;;;;;;;;;;22.00;61.80;;;;;;5087862;28;19925;-66
2023/08/28 05:23:57;;;;;;;;;;;21.70;58.80;;;;;;5075396;28;20347;-61
2023/08/28 05:26:24;;;;;;;;;;;21.50;61.90;;;;;;5072149;28;19989;-59
2023/08/28 05:28:51;;;;;;;;;;;21.30;58.00;;;;;;5072228;28;19956;-64
2023/08/28 05:31:18;;;;;;;;;;;21.10;61.10;;;;;;5071615;28;19932;-68
2023/08/28 05:33:45;;;;;;;;;;;21.00;61.10;;;;;;5068849;28;20020;-60
2023/08/28 05:36:13;;;;;;;;;;;20.80;63.10;;;;;;5073019;28;19932;-59
2023/08/28 05:38:40;;;;;;;;;;;20.60;66.80;;;;;;5073245;28;20380;-63
2023/08/28 05:41:07;;;;;;;;;;;20.60;64.30;;;;;;5075236;28;19928;-59
2023/08/28 05:43:34;;;;;;;;;;;20.50;69.40;;;;;;5069150;28;20311;-60
2023/08/28 05:46:01;;;;;;;;;;;20.50;65.60;;;;;;5074267;28;19936;-60
2023/08/28 05:48:28;;;;;;;;;;;20.50;69.00;;;;;;5071683;28;19978;-60
2023/08/28 05:50:55;;;;;;;;;;;20.50;67.90;;;;;;5067817;28;19928;-59
2023/08/28 05:53:22;;;;;;;;;;;20.50;71.10;;;;;;5068547;28;19964;-60
2023/08/28 05:55:50;;;;;;;;;;;20.50;70.00;;;;;;5069002;28;20011;-58
2023/08/28 05:58:17;;;;;;;;;;;20.50;68.20;;;;;;5065479;28;19928;-58
2023/08/28 06:00:44;;;;;;;;;;;20.50;61.30;;;;;;5072259;28;19960;-59
2023/08/28 06:03:11;;;;;;;;;;;20.50;64.40;;;;;;5075924;28;19928;-59
2023/08/28 06:05:38;;;;;;;;;;;20.40;69.10;;;;;;5072843;28;19932;-59
2023/08/28 06:08:05;;;;;;;;;;;20.30;64.60;;;;;;5074455;28;19932;-58
2023/08/28 06:10:33;;;;;;;;;;;20.40;66.20;;;;;;5072877;28;20011;-59
2023/08/28 06:13:01;;;;;;;;;;;20.40;72.20;;;;;;5071683;28;19943;-59
2023/08/28 06:15:29;;;;;;;;;;;20.40;63.60;;;;;;5074588;28;19943;-56
2023/08/28 06:17:56;;;;;;;;;;;20.30;65.20;;;;;;5074433;28;20653;-59
2023/08/28 06:20:23;;;;;;;;;;;20.30;69.50;;;;;;5072833;28;19932;-60
2023/08/28 06:22:50;;;;;;;;;;;20.30;69.80;;;;;;5074309;28;19924;-60
2023/08/28 06:25:17;;;;;;;;;;;20.30;69.00;;;;;;5072933;28;19928;-60
2023/08/28 06:27:44;;;;;;;;;;;20.30;70.70;;;;;;5071899;28;20319;-59
2023/08/28 06:30:12;;;;;;;;;;;20.20;68.90;;;;;;5068737;28;19936;-56
2023/08/28 06:32:39;;;;;;;;;;;20.20;68.50;;;;;;5066371;28;20303;-56
2023/08/28 06:35:06;;;;;;;;;;;20.20;65.80;;;;;;5067564;28;19932;-60
2023/08/28 06:37:34;;;;;;;;;;;20.20;70.00;;;;;;5067580;28;19938;-60
2023/08/28 06:40:03;;;;;;;;;;;20.20;64.30;;;;;;5081675;27;19937;-62
2023/08/28 06:42:30;;;;;;;;;;;20.20;68.40;;;;;;5067427;28;20307;-63
2023/08/28 06:44:57;;;;;;;;;;;20.20;63.40;;;;;;5068156;28;19967;-62
2023/08/28 06:47:27;;;;;;;;;;;20.30;64.00;;;;;;5073571;28;19925;-62
2023/08/28 06:49:54;;;;;;;;;;;20.30;65.30;;;;;;5072837;28;20262;-62
2023/08/28 06:52:21;;;;;;;;;;;20.30;64.90;;;;;;5074959;28;19936;-60
2023/08/28 06:54:48;;;;;;;;;;;20.30;63.10;;;;;;5071925;28;20380;-59
2023/08/28 06:57:18;;;;;;;;;;;20.30;64.30;;;;;;5078727;28;19932;-60
2023/08/28 06:59:46;;;;;;;;;;;20.30;63.90;;;;;;5073491;28;19924;-60
2023/08/28 07:02:13;;;;;;;;;;;20.30;65.20;;;;;;5071607;28;19928;-59
2023/08/28 07:04:40;;;;;;;;;;;20.30;65.40;;;;;;5063903;28;19979;-60
2023/08/28 07:07:13;;;;;;;;;;;20.20;64.70;;;;;;5070091;28;19932;-60
2023/08/28 07:09:40;;;;;;;;;;;20.30;63.30;;;;;;5069425;28;19932;-60
2023/08/28 07:12:07;;;;;;;;;;;20.30;64.00;;;;;;5078265;28;19935;-60
2023/08/28 07:14:34;;;;;;;;;;;20.30;66.40;;;;;;5076623;28;19933;-60
2023/08/28 07:17:01;;;;;;;;;;;20.30;63.30;;;;;;5075374;28;20387;-58
2023/08/28 07:19:29;;;;;;;;;;;20.30;64.20;;;;;;5070241;28;20016;-59
2023/08/28 07:21:59;;;;;;;;;;;20.40;64.30;;;;;;5069337;28;20388;-59
2023/08/28 07:24:27;;;;;;;;;;;20.40;65.00;;;;;;5069546;28;19924;-58
2023/08/28 07:26:54;;;;;;;;;;;20.40;63.20;;;;;;5070684;28;19931;-60
2023/08/28 07:29:21;;;;;;;;;;;20.40;63.80;;;;;;5064855;28;19932;-59
2023/08/28 07:31:48;;;;;;;;;;;20.50;64.50;;;;;;5071600;28;19960;-59
2023/08/28 07:34:15;;;;;;;;;;;20.50;64.10;;;;;;5070816;28;19954;-58
2023/08/28 07:36:44;;;;;;;;;;;20.50;64.10;;;;;;5070690;28;19931;-59
2023/08/28 07:39:11;;;;;;;;;;;20.50;63.70;;;;;;5076083;28;19924;-59
2023/08/28 07:41:38;;;;;;;;;;;20.50;64.70;;;;;;5077270;28;20015;-60
2023/08/28 07:44:05;;;;;;;;;;;20.50;65.40;;;;;;5070050;28;21564;-59
2023/08/28 07:46:33;;;;;;;;;;;20.50;64.70;;;;;;5069482;28;19936;-60
2023/08/28 07:49:00;;;;;;;;;;;20.50;65.10;;;;;;5072595;28;20018;-61
2023/08/28 07:51:27;;;;;;;;;;;20.60;64.20;;;;;;5070040;28;19929;-60
2023/08/28 07:53:55;;;;;;;;;;;20.60;64.60;;;;;;5074679;28;20008;-60
2023/08/28 07:56:22;;;;;;;;;;;20.60;64.00;;;;;;5075444;28;19932;-60
2023/08/28 07:58:51;;;;;;;;;;;20.70;63.90;;;;;;5072884;28;20167;-60
2023/08/28 08:01:18;;;;;;;;;;;20.70;65.10;;;;;;5072711;28;20059;-59
2023/08/28 08:03:45;;;;;;;;;;;20.70;64.20;;;;;;5074813;28;19925;-60
2023/08/28 08:06:12;;;;;;;;;;;20.70;65.50;;;;;;5077716;28;19932;-60
2023/08/28 08:08:39;;;;;;;;;;;20.80;64.00;;;;;;5074444;28;20330;-61
2023/08/28 08:11:07;;;;;;;;;;;20.80;64.80;;;;;;5077116;28;19970;-65
2023/08/28 08:13:34;;;;;;;;;;;20.80;63.00;;;;;;5069570;28;19932;-60
2023/08/28 08:16:01;;;;;;;;;;;20.80;64.10;;;;;;5071539;28;20366;-61
2023/08/28 08:18:28;;;;;;;;;;;20.80;63.90;;;;;;5068116;28;20389;-60
2023/08/28 08:20:56;;;;;;;;;;;20.90;65.00;;;;;;5072083;28;19939;-59
2023/08/28 08:23:24;;;;;;;;;;;20.90;64.30;;;;;;5070042;28;19928;-59
2023/08/28 08:25:52;;;;;;;;;;;20.90;63.60;;;;;;5068116;28;20313;-59
2023/08/28 08:28:19;;;;;;;;;;;20.90;63.20;;;;;;5071631;28;20407;-62
2023/08/28 08:30:46;;;;;;;;;;;20.90;64.10;;;;;;5074746;28;20442;-60
2023/08/28 08:33:13;;;;;;;;;;;20.90;63.50;;;;;;5071397;28;20027;-58
2023/08/28 08:35:41;;;;;;;;;;;20.90;64.60;;;;;;5073087;28;20025;-58
2023/08/28 08:38:08;;;;;;;;;;;20.90;64.20;;;;;;5070745;28;19929;-59
2023/08/28 08:40:39;;;;;;;;;;;20.90;63.50;;;;;;5071246;28;19928;-58
2023/08/28 08:43:06;;;;;;;;;;;21.00;61.30;;;;;;5072311;28;19955;-59
2023/08/28 08:45:36;;;;;;;;;;;21.00;62.10;;;;;;5077856;28;19928;-58
2023/08/28 08:48:05;;;;;;;;;;;21.00;62.80;;;;;;5075176;28;19928;-59
2023/08/28 08:50:35;;;;;;;;;;;21.00;63.70;;;;;;5075211;28;19951;-60
2023/08/28 08:53:06;;;;;;;;;;;21.10;62.30;;;;;;5071485;28;20016;-61
2023/08/28 08:55:41;;;;;;;;;;;21.10;61.70;;;;;;5074043;28;19935;-59
2023/08/28 08:58:10;;;;;;;;;;;21.20;63.10;;;;;;5075024;28;19938;-59
2023/08/28 09:00:38;;;;;;;;;;;21.20;62.20;;;;;;5067611;28;20038;-60
2023/08/28 09:03:06;;;;;;;;;;;21.20;62.70;;;;;;5074841;28;19924;-63
2023/08/28 09:05:34;;;;;;;;;;;21.20;63.50;;;;;;5075037;28;19928;-61
2023/08/28 09:08:03;;;;;;;;;;;21.30;63.00;;;;;;5071223;28;20269;-61
2023/08/28 09:10:31;;;;;;;;;;;21.20;62.00;;;;;;5072539;28;19928;-59
2023/08/28 09:12:58;;;;;;;;;;;21.30;62.00;;;;;;5076980;28;19935;-58
2023/08/28 09:15:25;;;;;;;;;;;21.30;61.30;;;;;;5082138;28;20382;-59
2023/08/28 09:17:53;;;;;;;;;;;21.30;63.20;;;;;;5075970;28;19931;-59
2023/08/28 09:20:21;;;;;;;;;;;21.40;62.60;;;;;;5075171;28;19932;-58
2023/08/28 09:22:49;;;;;;;;;;;21.40;63.30;;;;;;5074454;28;20022;-60
2023/08/28 09:25:21;;;;;;;;;;;21.40;61.20;;;;;;5075969;28;19943;-60
2023/08/28 09:27:49;;;;;;;;;;;21.50;62.30;;;;;;5073569;28;19958;-59
2023/08/28 09:30:28;;;;;;;;;;;21.50;61.70;;;;;;5073405;28;21076;-60
2023/08/28 09:32:59;;;;;;;;;;;21.50;62.60;;;;;;5072269;28;20341;-60
2023/08/28 09:35:39;;;;;;;;;;;21.50;62.00;;;;;;5072144;28;20003;-59
2023/08/28 09:38:07;;;;;;;;;;;21.50;61.80;;;;;;5074414;28;20291;-59
2023/08/28 09:40:35;;;;;;;;;;;21.50;62.00;;;;;;5073877;28;20365;-59
2023/08/28 09:43:13;;;;;;;;;;;21.60;61.70;;;;;;5074224;28;19936;-60
2023/08/28 09:45:41;;;;;;;;;;;21.60;61.30;;;;;;5082320;28;19981;-62
2023/08/28 09:48:10;;;;;;;;;;;21.60;60.70;;;;;;5075164;28;19934;-63
2023/08/28 09:50:38;;;;;;;;;;;21.60;59.70;;;;;;5079473;28;20380;-60
2023/08/28 09:53:07;;;;;;;;;;;21.60;59.60;;;;;;5072793;28;19974;-60
2023/08/28 09:55:39;;;;;;;;;;;21.70;59.40;;;;;;5075754;28;19928;-60
2023/08/28 09:58:10;;;;;;;;;;;21.70;59.10;;;;;;5071323;28;19924;-61
2023/08/28 10:00:38;;;;;;;;;;;21.70;60.10;;;;;;5070225;28;19935;-62
2023/08/28 10:03:09;;;;;;;;;;;21.70;59.40;;;;;;5075644;28;19924;-61
2023/08/28 10:05:37;;;;;;;;;;;21.70;60.20;;;;;;5073958;28;20345;-61
2023/08/28 10:08:05;;;;;;;;;;;21.70;59.20;;;;;;5078859;28;19946;-61
2023/08/28 10:10:33;;;;;;;;;;;21.70;60.00;;;;;;5075137;28;20475;-61
2023/08/28 10:13:02;;;;;;;;;;;21.70;59.40;;;;;;5073194;28;19967;-61
2023/08/28 10:15:30;;;;;;;;;;;21.70;60.20;;;;;;5076636;28;20364;-61
2023/08/28 10:17:59;;;;;;;;;;;21.80;58.60;;;;;;5080645;28;20003;-61
2023/08/28 10:20:28;;;;;;;;;;;21.80;58.30;;;;;;5078853;28;20010;-61
2023/08/28 10:22:56;;;;;;;;;;;21.80;58.40;;;;;;5071100;28;19924;-61
2023/08/28 10:25:28;;;;;;;;;;;21.80;59.30;;;;;;5077369;28;20017;-61
2023/08/28 10:27:56;;;;;;;;;;;21.80;59.00;;;;;;5072179;28;19998;-62
2023/08/28 10:30:25;;;;;;;;;;;21.80;59.50;;;;;;5075697;28;19942;-62
2023/08/28 10:32:54;;;;;;;;;;;21.80;59.00;;;;;;5078173;28;20019;-61
2023/08/28 10:35:22;;;;;;;;;;;21.90;59.10;;;;;;5072273;28;19932;-62
2023/08/28 10:37:49;;;;;;;;;;;21.90;58.30;;;;;;5071745;28;20281;-62
2023/08/28 10:40:17;;;;;;;;;;;21.90;60.20;;;;;;5073348;28;20692;-61
2023/08/28 10:42:45;;;;;;;;;;;21.90;60.00;;;;;;5074814;28;19931;-62
2023/08/28 10:45:12;;;;;;;;;;;21.90;59.10;;;;;;5077703;28;19969;-62
2023/08/28 10:47:39;;;;;;;;;;;21.90;60.70;;;;;;5071686;28;19936;-61
2023/08/28 10:50:06;;;;;;;;;;;21.90;57.70;;;;;;5071676;28;20019;-62
2023/08/28 10:52:34;;;;;;;;;;;21.90;57.80;;;;;;5068483;28;20356;-63
2023/08/28 10:55:04;;;;;;;;;;;21.90;60.10;;;;;;5071573;28;19931;-63
2023/08/28 10:57:31;;;;;;;;;;;21.90;59.80;;;;;;5073670;28;20351;-62
2023/08/28 11:00:13;;;;;;;;;;;21.90;59.00;;;;;;5075326;28;19924;-62
2023/08/28 11:03:03;;;;;;;;;;;21.90;61.50;;;;;;5074082;28;19971;-61
2023/08/28 11:05:31;;;;;;;;;;;22.00;61.20;;;;;;5068748;28;19928;-62
2023/08/28 11:08:03;;;;;;;;;;;22.00;61.20;;;;;;5073915;28;19977;-62
2023/08/28 11:10:31;;;;;;;;;;;22.00;59.90;;;;;;5068291;28;20019;-63
2023/08/28 11:13:01;;;;;;;;;;;22.10;60.00;;;;;;5073867;28;20019;-63
2023/08/28 11:15:30;;;;;;;;;;;22.10;60.40;;;;;;5064465;28;19975;-62
2023/08/28 11:18:17;;;;;;;;;;;22.20;58.80;;;;;;5075057;28;19947;-63
2023/08/28 11:20:48;;;;;;;;;;;22.20;58.50;;;;;;5066338;28;19924;-63
2023/08/28 11:23:20;;;;;;;;;;;22.30;59.20;;;;;;5072736;28;19932;-63
2023/08/28 11:25:47;;;;;;;;;;;22.30;57.50;;;;;;5069312;28;20390;-63
2023/08/28 11:28:25;;;;;;;;;;;22.40;59.70;;;;;;5073806;28;19986;-63
2023/08/28 11:30:56;;;;;;;;;;;22.30;57.90;;;;;;5064757;28;19932;-62
2023/08/28 11:33:24;;;;;;;;;;;22.40;57.80;;;;;;5067121;28;19971;-64
2023/08/28 11:35:57;;;;;;;;;;;22.40;57.30;;;;;;5069500;28;22843;-64
2023/08/28 11:38:24;;;;;;;;;;;22.40;58.50;;;;;;5069173;28;19932;-64
2023/08/28 11:40:57;;;;;;;;;;;22.40;58.90;;;;;;5067493;28;20462;-64
2023/08/28 11:43:24;;;;;;;;;;;22.30;57.80;;;;;;5059481;28;19929;-62
2023/08/28 11:45:57;;;;;;;;;;;22.40;58.20;;;;;;5063844;28;20023;-62
2023/08/28 11:48:25;;;;;;;;;;;22.40;58.80;;;;;;5065344;28;19928;-61
2023/08/28 11:51:03;;;;;;;;;;;22.40;58.50;;;;;;5067419;28;19968;-61
2023/08/28 11:53:40;;;;;;;;;;;22.40;58.90;;;;;;5065664;28;19932;-61
2023/08/28 11:56:11;;;;;;;;;;;22.50;58.50;;;;;;5066759;28;19932;-61
2023/08/28 11:58:39;;;;;;;;;;;22.40;58.80;;;;;;5063982;28;19925;-62
2023/08/28 12:01:08;;;;;;;;;;;22.50;58.90;;;;;;5077828;28;19933;-61
2023/08/28 12:03:39;;;;;;;;;;;22.40;58.10;;;;;;5074286;28;20376;-61
2023/08/28 12:06:07;;;;;;;;;;;22.40;57.80;;;;;;5071074;28;19933;-59
2023/08/28 12:08:36;;;;;;;;;;;22.40;58.30;;;;;;5077265;28;20014;-57
2023/08/28 12:11:10;;;;;;;;;;;22.40;58.80;;;;;;5075450;28;19936;-60
2023/08/28 12:13:38;;;;;;;;;;;22.40;58.20;;;;;;5074740;28;19975;-60
2023/08/28 12:16:05;;;;;;;;;;;22.40;57.80;;;;;;5074508;28;19924;-60
2023/08/28 12:18:50;;;;;;;;;;;22.40;58.40;;;;;;5075205;28;20007;-60
2023/08/28 12:21:18;;;;;;;;;;;22.40;58.50;;;;;;5077107;28;20277;-60
2023/08/28 12:23:51;;;;;;;;;;;22.30;58.20;;;;;;5077722;28;19939;-62
2023/08/28 12:26:20;;;;;;;;;;;22.40;58.60;;;;;;5080069;28;19959;-62
2023/08/28 12:28:47;;;;;;;;;;;22.30;57.20;;;;;;5077964;28;20296;-62
2023/08/28 12:31:14;;;;;;;;;;;22.30;57.20;;;;;;5078962;28;19933;-64
2023/08/28 12:33:43;;;;;;;;;;;22.30;58.80;;;;;;5075387;28;20280;-63
2023/08/28 12:36:10;;;;;;;;;;;22.30;58.30;;;;;;5074438;28;19932;-61
2023/08/28 12:38:44;;;;;;;;;;;22.30;58.30;;;;;;5074622;28;19928;-61
2023/08/28 12:41:11;;;;;;;;;;;22.30;60.10;;;;;;5080599;28;20408;-62
2023/08/28 12:43:38;;;;;;;;;;;22.30;57.40;;;;;;5081655;28;19929;-61
2023/08/28 12:46:05;;;;;;;;;;;22.30;57.60;;;;;;5081030;28;19970;-63
2023/08/28 12:48:32;;;;;;;;;;;22.30;58.00;;;;;;5077876;28;20427;-63
2023/08/28 12:50:59;;;;;;;;;;;22.30;59.70;;;;;;5073337;28;20342;-61
2023/08/28 12:53:26;;;;;;;;;;;22.30;59.70;;;;;;5073690;28;20015;-63
2023/08/28 12:55:53;;;;;;;;;;;22.30;60.10;;;;;;5075272;28;19924;-62
2023/08/28 12:58:20;;;;;;;;;;;22.20;60.20;;;;;;5077204;28;20376;-63
2023/08/28 13:00:47;;;;;;;;;;;22.20;58.80;;;;;;5071175;28;20308;-63
2023/08/28 13:03:14;;;;;;;;;;;22.20;60.50;;;;;;5072867;28;19985;-61
2023/08/28 13:05:41;;;;;;;;;;;22.20;60.60;;;;;;5075655;28;19925;-62
2023/08/28 13:08:08;;;;;;;;;;;22.20;59.70;;;;;;5082559;28;20020;-62
2023/08/28 13:10:37;;;;;;;;;;;22.20;60.20;;;;;;5076041;28;19928;-62
2023/08/28 13:13:04;;;;;;;;;;;22.20;58.80;;;;;;5075810;28;19929;-60
2023/08/28 13:15:32;;;;;;;;;;;22.20;59.90;;;;;;5072588;28;19936;-61
2023/08/28 13:17:59;;;;;;;;;;;22.20;59.10;;;;;;5072420;28;19929;-61
2023/08/28 13:20:28;;;;;;;;;;;22.20;58.80;;;;;;5080931;28;20307;-61
2023/08/28 13:22:55;;;;;;;;;;;22.30;58.10;;;;;;5075507;28;19928;-60
2023/08/28 13:25:22;;;;;;;;;;;22.20;59.00;;;;;;5077879;28;20372;-62
2023/08/28 13:27:49;;;;;;;;;;;22.30;59.80;;;;;;5079147;28;19939;-62
2023/08/28 13:30:16;;;;;;;;;;;22.30;60.80;;;;;;5078168;28;19939;-62
2023/08/28 13:32:48;;;;;;;;;;;22.30;60.60;;;;;;5083435;28;19997;-62
2023/08/28 13:35:16;;;;;;;;;;;22.30;59.30;;;;;;5079534;28;19932;-62
2023/08/28 13:37:43;;;;;;;;;;;22.30;58.40;;;;;;5079128;28;19939;-60
2023/08/28 13:40:11;;;;;;;;;;;22.30;58.40;;;;;;5082966;28;19978;-60
2023/08/28 13:42:39;;;;;;;;;;;22.30;58.70;;;;;;5081412;28;19975;-61
2023/08/28 13:45:06;;;;;;;;;;;22.30;58.20;;;;;;5073109;28;19932;-60
2023/08/28 13:47:33;;;;;;;;;;;22.30;57.50;;;;;;5076670;28;19968;-62
2023/08/28 13:50:00;;;;;;;;;;;22.40;59.90;;;;;;5075586;28;19928;-62
2023/08/28 13:52:27;;;;;;;;;;;22.40;59.60;;;;;;5075185;28;19936;-61
2023/08/28 13:54:55;;;;;;;;;;;22.40;58.90;;;;;;5072134;28;20450;-61
2023/08/28 13:57:22;;;;;;;;;;;22.40;60.90;;;;;;5079378;28;19932;-61
2023/08/28 13:59:49;;;;;;;;;;;22.40;60.90;;;;;;5076179;28;20392;-62
2023/08/28 14:02:16;;;;;;;;;;;22.40;59.60;;;;;;5073052;28;19974;-62
2023/08/28 14:04:43;;;;;;;;;;;22.40;60.10;;;;;;5071077;28;19983;-61
2023/08/28 14:07:10;;;;;;;;;;;22.50;70.00;;;;;;5076320;28;19932;-62
2023/08/28 14:09:37;;;;;;;;;;;22.80;75.70;;;;;;5078036;28;19963;-61
2023/08/28 14:12:05;;;;;;;;;;;23.10;77.30;;;;;;5076523;28;19971;-63
2023/08/28 14:14:31;;;;;;;;;;;23.40;77.50;;;;;;5072748;28;20490;-61
2023/08/28 14:16:58;;;;;;;;;;;23.70;77.60;;;;;;5071368;28;20379;-61
2023/08/28 14:19:26;;;;;;;;;;;24.00;77.60;;;;;;5077273;28;19954;-61
2023/08/28 14:21:53;;;;;;;;;;;24.30;77.20;;;;;;5080317;28;19940;-60